createdAt,value
2022-08-02T00:01:25.481Z,95.60
2022-08-02T00:03:55.999Z,95.60
2022-08-02T00:06:26.916Z,95.60
2022-08-02T00:08:57.200Z,95.70
2022-08-02T00:11:27.638Z,95.70
2022-08-02T00:14:00.981Z,95.80
2022-08-02T00:16:37.951Z,95.90
2022-08-02T00:19:09.020Z,95.90
2022-08-02T00:21:42.012Z,95.90
2022-08-02T00:24:30.062Z,96.00
2022-08-02T00:27:03.876Z,95.90
2022-08-02T00:29:52.636Z,96.40
2022-08-02T00:32:24.964Z,96.20
2022-08-02T00:34:55.422Z,96.30
2022-08-02T00:37:25.781Z,96.10
2022-08-02T00:39:57.713Z,96.30
2022-08-02T00:42:28.362Z,96.30
2022-08-02T00:45:01.351Z,96.30
2022-08-02T00:47:31.775Z,96.50
2022-08-02T00:50:02.190Z,96.60
2022-08-02T00:52:32.670Z,96.70
2022-08-02T00:55:03.112Z,97.10
2022-08-02T00:57:33.478Z,96.70
2022-08-02T01:00:08.954Z,96.70
2022-08-02T01:02:39.302Z,96.80
2022-08-02T01:05:10.946Z,96.80
2022-08-02T01:07:41.830Z,96.90
2022-08-02T01:10:13.696Z,96.80
2022-08-02T01:12:45.181Z,97.00
2022-08-02T01:15:22.216Z,97.10
2022-08-02T01:18:14.364Z,97.20
2022-08-02T01:21:10.504Z,97.20
2022-08-02T01:23:54.372Z,97.20
2022-08-02T01:26:41.495Z,97.30
2022-08-02T01:29:18.788Z,97.30
2022-08-02T01:31:53.701Z,97.40
2022-08-02T01:34:33.464Z,97.50
2022-08-02T01:37:10.507Z,97.50
2022-08-02T01:39:43.398Z,97.60
2022-08-02T01:42:15.008Z,97.60
2022-08-02T01:44:49.941Z,97.60
2022-08-02T01:47:27.028Z,97.60
2022-08-02T01:50:01.578Z,97.70
2022-08-02T01:52:35.949Z,97.80
2022-08-02T01:55:18.656Z,97.70
2022-08-02T01:57:52.559Z,97.70
2022-08-02T02:00:30.672Z,97.90
2022-08-02T02:03:02.561Z,97.90
2022-08-02T02:05:35.392Z,98.00
2022-08-02T02:08:07.429Z,98.00
2022-08-02T02:10:41.350Z,98.10
2022-08-02T02:13:16.424Z,98.10
2022-08-02T02:15:51.395Z,98.10
2022-08-02T02:18:27.737Z,98.20
2022-08-02T02:20:58.107Z,98.30
2022-08-02T02:23:33.390Z,98.40
2022-08-02T02:26:07.419Z,98.50
2022-08-02T02:28:42.245Z,98.50
2022-08-02T02:31:19.128Z,98.60
2022-08-02T02:33:55.560Z,98.60
2022-08-02T02:36:26.696Z,98.70
2022-08-02T02:39:00.339Z,98.80
2022-08-02T02:41:36.280Z,98.80
2022-08-02T02:44:12.299Z,99.00
2022-08-02T02:46:46.249Z,99.10
2022-08-02T02:49:17.956Z,99.20
2022-08-02T02:51:49.046Z,99.20
2022-08-02T02:54:30.653Z,99.30
2022-08-02T02:57:07.365Z,99.40
2022-08-02T02:59:48.963Z,99.50
2022-08-02T03:02:23.070Z,99.60
2022-08-02T03:04:57.509Z,99.60
2022-08-02T03:07:29.172Z,99.70
2022-08-02T03:10:00.035Z,99.70
2022-08-02T03:12:32.499Z,99.80
2022-08-02T03:15:04.755Z,99.80
2022-08-02T03:17:45.143Z,99.90
2022-08-02T03:20:17.627Z,99.90
2022-08-02T03:22:49.371Z,99.90
2022-08-02T03:25:20.936Z,99.90
2022-08-02T03:27:51.298Z,99.90
2022-08-02T03:30:24.852Z,99.90
2022-08-02T03:32:58.036Z,99.90
2022-08-02T03:35:28.547Z,99.90
2022-08-02T03:38:00.415Z,99.90
2022-08-02T03:40:32.130Z,99.90
2022-08-02T03:43:04.319Z,99.90
2022-08-02T03:45:35.814Z,99.90
2022-08-02T03:48:34.287Z,99.90
2022-08-02T03:51:00.754Z,99.90
2022-08-02T03:53:33.225Z,99.90
2022-08-02T03:56:04.175Z,99.90
2022-08-02T03:58:34.578Z,99.90
2022-08-02T04:01:05.557Z,99.90
2022-08-02T04:03:38.684Z,99.90
2022-08-02T04:06:09.607Z,99.90
2022-08-02T04:08:39.973Z,99.90
2022-08-02T04:11:22.723Z,99.90
2022-08-02T04:13:56.699Z,99.90
2022-08-02T04:16:34.079Z,99.90
2022-08-02T04:19:09.006Z,99.90
2022-08-02T04:21:51.807Z,99.90
2022-08-02T04:24:28.136Z,99.90
2022-08-02T04:27:06.462Z,99.90
2022-08-02T04:29:38.377Z,99.90
2022-08-02T04:32:10.036Z,99.90
2022-08-02T04:34:54.196Z,99.90
2022-08-02T04:37:33.592Z,99.90
2022-08-02T04:40:04.085Z,99.90
2022-08-02T04:42:34.392Z,99.90
2022-08-02T04:45:04.684Z,99.90
2022-08-02T04:48:03.448Z,99.90
2022-08-02T04:50:27.982Z,99.90
2022-08-02T04:52:58.233Z,99.90
2022-08-02T04:55:29.336Z,99.90
2022-08-02T04:58:03.986Z,99.90
2022-08-02T05:00:40.208Z,99.90
2022-08-02T05:03:11.177Z,99.90
2022-08-02T05:05:44.432Z,99.90
2022-08-02T05:08:14.912Z,99.90
2022-08-02T05:10:45.230Z,99.90
2022-08-02T05:13:15.584Z,99.90
2022-08-02T05:15:45.960Z,99.90
2022-08-02T05:18:16.321Z,99.90
2022-08-02T05:20:49.458Z,99.90
2022-08-02T05:23:19.955Z,99.90
2022-08-02T05:25:50.394Z,99.90
2022-08-02T05:28:20.789Z,99.90
2022-08-02T05:30:51.135Z,99.90
2022-08-02T05:33:21.747Z,99.90
2022-08-02T05:35:54.641Z,99.90
2022-08-02T05:38:26.441Z,99.90
2022-08-02T05:40:56.791Z,99.90
2022-08-02T05:43:27.183Z,99.90
2022-08-02T05:45:57.500Z,99.90
2022-08-02T05:48:32.003Z,99.90
2022-08-02T05:51:09.048Z,99.90
2022-08-02T05:53:41.971Z,99.90
2022-08-02T05:56:23.954Z,99.90
2022-08-02T05:59:00.101Z,99.90
2022-08-02T06:01:36.897Z,99.90
2022-08-02T06:04:10.902Z,99.90
2022-08-02T06:06:47.958Z,99.90
2022-08-02T06:09:25.176Z,99.90
2022-08-02T06:12:03.076Z,99.90
2022-08-02T06:14:35.788Z,99.90
2022-08-02T06:17:08.680Z,99.90
2022-08-02T06:19:51.069Z,99.90
2022-08-02T06:22:31.810Z,99.90
2022-08-02T06:25:05.483Z,99.90
2022-08-02T06:27:37.968Z,99.90
2022-08-02T06:30:10.825Z,99.90
2022-08-02T06:32:41.125Z,99.90
2022-08-02T06:35:13.468Z,99.90
2022-08-02T06:37:53.600Z,99.90
2022-08-02T06:40:32.779Z,99.90
2022-08-02T06:43:27.195Z,99.90
2022-08-02T06:47:10.397Z,99.90
2022-08-02T06:48:48.039Z,99.90
2022-08-02T06:51:18.589Z,99.90
2022-08-02T06:53:51.838Z,99.90
2022-08-02T06:56:22.449Z,99.90
2022-08-02T06:58:52.815Z,99.90
2022-08-02T07:01:23.476Z,99.90
2022-08-02T07:03:53.826Z,99.90
2022-08-02T07:06:26.018Z,99.90
2022-08-02T07:09:19.365Z,99.90
2022-08-02T07:11:52.153Z,99.90
2022-08-02T07:14:22.614Z,99.90
2022-08-02T07:16:55.173Z,99.90
2022-08-02T07:19:30.060Z,99.90
2022-08-02T07:22:08.756Z,99.90
2022-08-02T07:24:42.247Z,99.90
2022-08-02T07:27:13.348Z,99.90
2022-08-02T07:29:45.037Z,99.90
2022-08-02T07:32:16.423Z,99.90
2022-08-02T07:34:52.719Z,99.90
2022-08-02T07:37:54.057Z,99.90
2022-08-02T07:40:22.974Z,99.90
2022-08-02T07:43:03.592Z,99.90
2022-08-02T07:45:35.692Z,99.90
2022-08-02T07:48:08.768Z,99.90
2022-08-02T07:50:39.403Z,99.90
2022-08-02T07:53:09.933Z,99.90
2022-08-02T07:55:42.883Z,99.90
2022-08-02T07:58:14.292Z,99.90
2022-08-02T08:00:46.330Z,99.90
2022-08-02T08:03:17.114Z,99.90
2022-08-02T08:05:47.517Z,99.90
2022-08-02T08:08:20.256Z,99.90
2022-08-02T08:10:53.338Z,99.90
2022-08-02T08:13:23.739Z,99.90
2022-08-02T08:15:54.249Z,99.90
2022-08-02T08:18:25.236Z,99.90
2022-08-02T08:20:58.647Z,99.90
2022-08-02T08:23:33.118Z,99.90
2022-08-02T08:26:06.760Z,99.90
2022-08-02T08:28:37.294Z,99.90
2022-08-02T08:31:07.601Z,99.90
2022-08-02T08:33:38.069Z,99.90
2022-08-02T08:36:08.943Z,99.90
2022-08-02T08:38:39.352Z,99.90
2022-08-02T08:41:12.439Z,99.90
2022-08-02T08:43:42.887Z,99.90
2022-08-02T08:46:14.894Z,99.90
2022-08-02T08:48:49.392Z,99.90
2022-08-02T08:51:24.331Z,99.90
2022-08-02T08:53:59.227Z,99.90
2022-08-02T08:56:36.790Z,99.90
2022-08-02T08:59:09.766Z,99.90
2022-08-02T09:01:50.009Z,99.90
2022-08-02T09:04:22.277Z,99.90
2022-08-02T09:06:52.906Z,99.90
2022-08-02T09:09:23.471Z,99.90
2022-08-02T09:11:56.351Z,99.90
2022-08-02T09:14:32.928Z,99.90
2022-08-02T09:17:14.299Z,99.90
2022-08-02T09:19:46.140Z,99.90
2022-08-02T09:22:17.782Z,99.90
2022-08-02T09:24:49.826Z,99.90
2022-08-02T09:27:24.526Z,99.90
2022-08-02T09:30:14.116Z,99.90
2022-08-02T09:32:50.085Z,99.90
2022-08-02T09:36:06.287Z,99.90
2022-08-02T09:38:26.088Z,99.90
2022-08-02T09:40:56.774Z,99.90
2022-08-02T09:44:03.276Z,99.90
2022-08-02T09:46:33.955Z,99.90
2022-08-02T09:49:06.696Z,99.90
2022-08-02T09:51:38.589Z,99.90
2022-08-02T09:54:12.089Z,99.90
2022-08-02T09:56:50.784Z,99.90
2022-08-02T09:59:26.079Z,99.90
2022-08-02T10:02:01.655Z,99.90
2022-08-02T10:04:52.366Z,99.90
2022-08-02T10:07:25.940Z,99.90
2022-08-02T10:09:56.239Z,99.90
2022-08-02T10:12:27.146Z,99.50
2022-08-02T10:15:00.057Z,99.40
2022-08-02T10:17:30.665Z,99.00
2022-08-02T10:20:05.156Z,99.20
2022-08-02T10:22:37.353Z,99.30
2022-08-02T10:25:09.702Z,99.20
2022-08-02T10:28:04.374Z,99.30
2022-08-02T10:30:34.819Z,98.50
2022-08-02T10:33:06.801Z,98.40
2022-08-02T10:35:41.431Z,98.60
2022-08-02T10:38:14.249Z,98.60
2022-08-02T10:40:49.442Z,97.50
2022-08-02T10:43:45.095Z,98.00
2022-08-02T10:46:34.318Z,97.90
2022-08-02T10:49:29.656Z,96.40
2022-08-02T10:52:09.059Z,96.70
2022-08-02T10:54:42.098Z,96.80
2022-08-02T10:57:23.745Z,96.30
2022-08-02T10:59:55.922Z,95.70
2022-08-02T11:02:43.560Z,95.80
2022-08-02T11:05:19.321Z,95.60
2022-08-02T11:07:50.922Z,95.80
2022-08-02T11:10:37.635Z,95.80
2022-08-02T11:13:14.220Z,94.40
2022-08-02T11:15:57.178Z,94.70
2022-08-02T11:19:06.800Z,95.00
2022-08-02T11:21:40.790Z,95.20
2022-08-02T11:24:31.345Z,95.00
2022-08-02T11:27:02.808Z,95.20
2022-08-02T11:29:42.434Z,94.90
2022-08-02T11:32:19.796Z,93.00
2022-08-02T11:34:51.973Z,92.70
2022-08-02T11:37:35.801Z,92.70
2022-08-02T11:40:11.562Z,92.80
2022-08-02T11:42:53.954Z,93.00
2022-08-02T11:45:30.149Z,93.20
2022-08-02T11:48:02.295Z,92.80
2022-08-02T11:50:32.608Z,91.80
2022-08-02T11:53:15.465Z,91.60
2022-08-02T11:55:45.954Z,92.30
2022-08-02T11:58:16.363Z,92.30
2022-08-02T12:00:47.282Z,91.60
2022-08-02T12:03:19.704Z,91.40
2022-08-02T12:06:04.915Z,91.40
2022-08-02T12:08:40.702Z,91.90
2022-08-02T12:11:24.830Z,91.60
2022-08-02T12:13:56.465Z,91.60
2022-08-02T12:16:40.785Z,91.10
2022-08-02T12:19:23.599Z,90.80
2022-08-02T12:22:10.717Z,90.90
2022-08-02T12:24:46.168Z,90.80
2022-08-02T12:27:32.809Z,90.90
2022-08-02T12:30:05.593Z,90.60
2022-08-02T12:32:39.644Z,90.40
2022-08-02T12:35:26.625Z,90.10
2022-08-02T12:37:57.669Z,88.60
2022-08-02T12:40:35.086Z,89.70
2022-08-02T12:43:07.318Z,89.90
2022-08-02T12:45:50.368Z,90.00
2022-08-02T12:48:37.338Z,90.00
2022-08-02T12:51:24.808Z,90.40
2022-08-02T12:54:18.281Z,90.00
2022-08-02T12:56:52.149Z,89.90
2022-08-02T12:59:38.922Z,90.20
2022-08-02T13:02:15.019Z,90.10
2022-08-02T13:04:50.520Z,90.40
2022-08-02T13:07:21.906Z,90.40
2022-08-02T13:10:00.263Z,89.80
2022-08-02T13:12:36.773Z,90.00
2022-08-02T13:17:59.463Z,90.20
2022-08-02T13:20:30.766Z,90.10
2022-08-02T13:23:03.759Z,90.10
2022-08-02T13:25:34.698Z,89.60
2022-08-02T13:28:07.986Z,90.20
2022-08-02T13:30:38.568Z,90.30
2022-08-02T13:33:09.185Z,89.90
2022-08-02T13:35:39.516Z,89.40
2022-08-02T13:38:09.806Z,89.80
2022-08-02T13:41:05.130Z,88.90
2022-08-02T13:43:52.160Z,89.40
2022-08-02T13:46:29.423Z,90.00
2022-08-02T13:49:00.140Z,89.30
2022-08-02T13:51:30.518Z,88.70
2022-08-02T13:54:07.919Z,89.60
2022-08-02T13:56:38.250Z,88.20
2022-08-02T13:59:54.809Z,88.40
2022-08-02T14:02:02.136Z,88.70
2022-08-02T14:04:32.826Z,87.90
2022-08-02T14:07:03.447Z,88.50
2022-08-02T14:09:35.938Z,88.60
2022-08-02T14:12:06.897Z,88.70
2022-08-02T14:14:39.875Z,88.20
2022-08-02T14:17:11.345Z,88.80
2022-08-02T14:19:42.001Z,89.40
2022-08-02T14:22:12.635Z,89.20
2022-08-02T14:24:44.174Z,89.50
2022-08-02T14:27:15.829Z,89.60
2022-08-02T14:29:51.531Z,88.80
2022-08-02T14:32:21.853Z,90.00
2022-08-02T14:35:03.271Z,88.90
2022-08-02T14:37:34.222Z,89.10
2022-08-02T14:40:04.535Z,89.00
2022-08-02T14:42:34.846Z,88.40
2022-08-02T14:45:08.724Z,89.90
2022-08-02T14:47:38.999Z,88.60
2022-08-02T14:50:09.853Z,88.60
2022-08-02T14:52:40.456Z,88.00
2022-08-02T14:55:16.792Z,87.30
2022-08-02T14:57:47.548Z,88.10
2022-08-02T15:00:21.351Z,88.40
2022-08-02T15:02:51.652Z,88.30
2022-08-02T15:05:22.216Z,87.60
2022-08-02T15:07:54.524Z,88.10
2022-08-02T15:10:25.261Z,87.60
2022-08-02T15:12:55.894Z,87.50
2022-08-02T15:15:28.904Z,87.30
2022-08-02T15:18:00.527Z,87.50
2022-08-02T15:20:30.967Z,86.80
2022-08-02T15:23:04.540Z,87.50
2022-08-02T15:25:38.484Z,87.50
2022-08-02T15:28:12.157Z,86.20
2022-08-02T15:30:45.284Z,87.70
2022-08-02T15:33:15.719Z,86.20
2022-08-02T15:35:46.191Z,86.20
2022-08-02T15:38:16.572Z,86.30
2022-08-02T15:40:46.883Z,86.40
2022-08-02T15:43:17.288Z,86.20
2022-08-02T15:45:50.347Z,86.20
2022-08-02T15:48:20.975Z,85.30
2022-08-02T15:50:51.398Z,86.90
2022-08-02T15:53:21.830Z,87.40
2022-08-02T15:56:05.128Z,86.70
2022-08-02T15:58:44.254Z,86.20
2022-08-02T16:01:17.877Z,87.30
2022-08-02T16:03:48.486Z,85.90
2022-08-02T16:06:18.992Z,86.00
2022-08-02T16:08:53.634Z,85.70
2022-08-02T16:11:25.396Z,84.70
2022-08-02T16:13:56.836Z,85.30
2022-08-02T16:16:32.029Z,85.50
2022-08-02T16:19:47.850Z,85.50
2022-08-02T16:21:54.888Z,84.80
2022-08-02T16:24:26.488Z,84.70
2022-08-02T16:26:56.906Z,84.40
2022-08-02T16:29:27.307Z,83.50
2022-08-02T16:32:07.650Z,83.10
2022-08-02T16:34:57.115Z,83.10
2022-08-02T16:37:28.640Z,83.90
2022-08-02T16:40:19.085Z,84.10
2022-08-02T16:42:50.838Z,83.80
2022-08-02T16:45:24.620Z,83.10
2022-08-02T16:48:03.225Z,82.60
2022-08-02T16:50:34.195Z,82.70
2022-08-02T16:53:07.105Z,83.20
2022-08-02T16:55:38.325Z,82.50
2022-08-02T16:58:22.432Z,82.70
2022-08-02T17:00:56.249Z,82.40
2022-08-02T17:03:33.530Z,82.80
2022-08-02T17:06:22.402Z,82.20
2022-08-02T17:08:57.882Z,83.50
2022-08-02T17:11:29.645Z,82.40
2022-08-02T17:14:00.116Z,82.60
2022-08-02T17:16:30.638Z,83.10
2022-08-02T17:19:03.943Z,82.90
2022-08-02T17:21:34.781Z,82.30
2022-08-02T17:24:08.306Z,82.80
2022-08-02T17:26:40.169Z,83.10
2022-08-02T17:29:16.402Z,82.20
2022-08-02T17:32:05.201Z,83.20
2022-08-02T17:34:39.982Z,83.10
2022-08-02T17:37:19.635Z,82.70
2022-08-02T17:39:51.833Z,82.80
2022-08-02T17:42:24.713Z,82.90
2022-08-02T17:45:00.887Z,83.70
2022-08-02T17:47:42.046Z,83.70
2022-08-02T17:50:15.942Z,84.00
2022-08-02T17:52:52.357Z,83.80
2022-08-02T17:55:23.887Z,84.70
2022-08-02T17:57:57.149Z,84.40
2022-08-02T18:00:36.806Z,84.40
2022-08-02T18:03:10.153Z,84.30
2022-08-02T18:05:55.086Z,83.90
2022-08-02T18:08:26.016Z,84.20
2022-08-02T18:10:57.295Z,83.90
2022-08-02T18:13:32.788Z,82.90
2022-08-02T18:16:03.970Z,83.50
2022-08-02T18:18:34.449Z,83.60
2022-08-02T18:21:22.001Z,83.10
2022-08-02T18:23:58.638Z,83.00
2022-08-02T18:26:31.573Z,82.90
2022-08-02T18:29:04.869Z,82.60
2022-08-02T18:31:39.518Z,83.30
2022-08-02T18:34:11.146Z,83.60
2022-08-02T18:36:47.001Z,83.40
2022-08-02T18:39:18.347Z,84.20
2022-08-02T18:41:50.334Z,83.60
2022-08-02T18:44:21.073Z,83.90
2022-08-02T18:46:51.600Z,84.50
2022-08-02T18:49:24.150Z,84.00
2022-08-02T18:52:03.845Z,84.30
2022-08-02T18:54:34.399Z,84.80
2022-08-02T18:58:01.782Z,84.80
2022-08-02T18:59:55.255Z,85.90
2022-08-02T19:02:25.796Z,85.10
2022-08-02T19:04:58.393Z,85.30
2022-08-02T19:07:50.326Z,85.80
2022-08-02T19:10:22.518Z,86.40
2022-08-02T19:12:53.670Z,87.30
2022-08-02T19:15:25.370Z,87.80
2022-08-02T19:17:58.237Z,88.20
2022-08-02T19:20:29.094Z,88.80
2022-08-02T19:23:03.029Z,88.30
2022-08-02T19:25:35.467Z,88.40
2022-08-02T19:28:09.733Z,88.60
2022-08-02T19:30:42.862Z,89.30
2022-08-02T19:33:24.960Z,90.00
2022-08-02T19:36:04.690Z,89.80
2022-08-02T19:38:41.933Z,90.10
2022-08-02T19:41:17.313Z,90.10
2022-08-02T19:44:25.529Z,89.60
2022-08-02T19:46:42.862Z,90.20
2022-08-02T19:49:39.222Z,89.80
2022-08-02T19:52:21.912Z,90.30
2022-08-02T19:54:58.699Z,90.80
2022-08-02T19:57:34.465Z,91.00
2022-08-02T20:00:05.823Z,91.20
2022-08-02T20:02:46.658Z,91.10
2022-08-02T20:08:09.855Z,91.40
2022-08-02T20:13:47.154Z,91.40
2022-08-02T20:19:10.108Z,91.60
2022-08-02T20:21:42.768Z,91.90
2022-08-02T20:24:15.368Z,91.60
2022-08-02T20:26:48.852Z,92.00
2022-08-02T20:29:45.114Z,92.10
2022-08-02T20:32:10.246Z,92.10
2022-08-02T20:34:40.708Z,92.20
2022-08-02T20:37:59.689Z,92.30
2022-08-02T20:40:01.750Z,92.30
2022-08-02T20:42:34.814Z,92.70
2022-08-02T20:45:05.548Z,92.50
2022-08-02T20:47:39.682Z,92.50
2022-08-02T20:50:31.468Z,92.50
2022-08-02T20:53:03.238Z,92.70
2022-08-02T20:55:35.798Z,92.70
2022-08-02T20:58:11.893Z,92.80
2022-08-02T21:00:42.853Z,92.80
2022-08-02T21:03:14.439Z,92.80
2022-08-02T21:05:56.021Z,92.90
2022-08-02T21:08:26.806Z,92.90
2022-08-02T21:10:57.301Z,93.00
2022-08-02T21:13:30.385Z,93.10
2022-08-02T21:16:04.958Z,93.00
2022-08-02T21:18:40.686Z,93.00
2022-08-02T21:21:12.099Z,93.10
2022-08-02T21:23:48.880Z,93.30
2022-08-02T21:26:27.851Z,93.60
2022-08-02T21:29:04.378Z,93.40
2022-08-02T21:31:36.433Z,93.40
2022-08-02T21:34:26.472Z,93.60
2022-08-02T21:36:58.165Z,93.70
2022-08-02T21:39:29.085Z,94.00
2022-08-02T21:41:59.758Z,93.90
2022-08-02T21:44:32.789Z,94.30
2022-08-02T21:47:03.259Z,94.20
2022-08-02T21:50:08.939Z,94.20
2022-08-02T21:52:25.945Z,94.30
2022-08-02T21:54:57.527Z,94.40
2022-08-02T21:57:34.856Z,94.50
2022-08-02T22:00:13.429Z,94.60
2022-08-02T22:02:44.088Z,94.90
2022-08-02T22:05:15.116Z,94.50
2022-08-02T22:07:45.587Z,94.60
2022-08-02T22:10:16.455Z,94.90
2022-08-02T22:12:46.767Z,95.00
2022-08-02T22:18:14.578Z,95.10
2022-08-02T22:20:51.611Z,95.30
2022-08-02T22:23:38.950Z,95.50
2022-08-02T22:26:12.815Z,95.60
2022-08-02T22:28:50.514Z,96.00
2022-08-02T22:31:41.088Z,95.70
2022-08-02T22:34:11.603Z,95.90
2022-08-02T22:36:57.585Z,96.20
2022-08-02T22:39:28.496Z,96.40
2022-08-02T22:42:06.268Z,96.70
2022-08-02T22:44:37.147Z,96.70
2022-08-02T22:47:14.516Z,96.80
2022-08-02T22:49:53.178Z,97.00
2022-08-02T22:52:26.574Z,97.00
2022-08-02T22:54:56.834Z,97.10
2022-08-02T22:57:30.999Z,97.30
2022-08-02T22:59:05.254Z,91.50
2022-08-02T22:59:06.357Z,91.60
2022-08-02T22:59:07.835Z,91.40
2022-08-02T22:59:10.864Z,95.10
2022-08-02T23:00:05.715Z,97.30
2022-08-02T23:02:39.360Z,97.30
2022-08-02T23:05:10.371Z,97.40
2022-08-02T23:07:40.855Z,97.70
2022-08-02T23:10:11.741Z,97.70
2022-08-02T23:12:42.084Z,97.70
2022-08-02T23:15:13.846Z,97.80
2022-08-02T23:17:59.145Z,97.70
2022-08-02T23:20:29.762Z,97.60
2022-08-02T23:23:00.314Z,97.50
2022-08-02T23:25:30.640Z,97.60
2022-08-02T23:28:00.885Z,97.60
2022-08-02T23:30:31.322Z,97.60
2022-08-02T23:33:04.418Z,97.60
2022-08-02T23:35:34.741Z,97.70
2022-08-02T23:38:05.224Z,97.70
2022-08-02T23:40:40.098Z,97.80
2022-08-02T23:43:14.010Z,97.70
2022-08-02T23:45:46.942Z,97.70
2022-08-02T23:48:19.930Z,97.60
2022-08-02T23:50:50.197Z,97.20
2022-08-02T23:53:20.532Z,97.10
2022-08-02T23:55:50.878Z,97.40
2022-08-02T23:58:21.890Z,97.20
